Time;durP1;ratioP1;P1;durP2;ratioP2;P2;SDS_P1;SDS_P2;PMS_P1;PMS_P2;Temp;Humidity;BMP_temperature;BMP_pressure;BME280_temperature;BME280_humidity;BME280_pressure;Samples;Min_cycle;Max_cycle;Signal;HPM_P1;HPM_P2
2022/10/02 00:00:27;;;;;;;0.80;0.80;;;21.00;64.30;;;;;;4954987;28;20551;-69
2022/10/02 00:03:02;;;;;;;0.80;0.80;;;21.00;64.30;;;;;;4954452;29;21004;-68
2022/10/02 00:05:35;;;;;;;0.90;0.90;;;20.90;64.40;;;;;;4945213;29;20464;-69
2022/10/02 00:08:07;;;;;;;1.00;1.00;;;21.00;64.30;;;;;;4946272;29;20454;-69
2022/10/02 00:10:43;;;;;;;1.00;0.90;;;20.90;64.40;;;;;;4954143;28;20790;-69
2022/10/02 00:13:18;;;;;;;0.80;0.80;;;20.90;64.40;;;;;;4936821;28;20464;-69
2022/10/02 00:15:47;;;;;;;1.30;1.10;;;20.90;64.40;;;;;;4935539;29;20434;-68
2022/10/02 00:18:28;;;;;;;1.07;0.97;;;21.00;64.30;;;;;;4935260;29;20465;-68
2022/10/02 00:21:03;;;;;;;1.00;1.00;;;21.00;64.50;;;;;;4934761;29;20464;-69
2022/10/02 00:23:37;;;;;;;0.63;0.63;;;21.00;64.40;;;;;;4935417;29;20454;-69
2022/10/02 00:26:09;;;;;;;0.87;0.87;;;20.90;64.60;;;;;;4935258;29;20902;-68
2022/10/02 00:28:45;;;;;;;0.63;0.63;;;20.90;64.80;;;;;;4954370;28;20452;-70
2022/10/02 00:31:28;;;;;;;0.87;0.87;;;20.90;64.70;;;;;;4941009;28;20473;-68
2022/10/02 00:34:19;;;;;;;0.73;0.73;;;20.90;64.60;;;;;;4934935;29;20433;-69
2022/10/02 00:36:57;;;;;;;0.97;0.97;;;20.90;64.90;;;;;;4953431;29;20764;-68
2022/10/02 00:39:35;;;;;;;0.90;0.90;;;20.90;64.80;;;;;;4954343;29;20435;-69
2022/10/02 00:42:34;;;;;;;0.93;0.93;;;20.90;64.90;;;;;;4939103;28;20453;-68
2022/10/02 00:45:34;;;;;;;1.00;1.00;;;20.90;65.10;;;;;;4934689;29;20743;-69
2022/10/02 00:48:14;;;;;;;0.70;0.70;;;20.90;64.90;;;;;;4947727;29;20450;-69
2022/10/02 00:50:51;;;;;;;0.90;0.90;;;20.90;65.00;;;;;;4954173;28;20935;-68
2022/10/02 00:53:32;;;;;;;1.33;1.10;;;20.90;65.10;;;;;;4946280;28;20445;-70
2022/10/02 00:56:12;;;;;;;0.60;0.60;;;20.90;65.00;;;;;;4935957;29;20797;-69
2022/10/02 00:58:55;;;;;;;0.80;0.80;;;20.90;65.00;;;;;;4943996;29;20456;-70
2022/10/02 01:01:29;;;;;;;0.70;0.70;;;20.90;64.80;;;;;;4958348;28;20785;-70
2022/10/02 01:03:58;;;;;;;0.87;0.87;;;20.90;64.80;;;;;;4947269;28;20483;-68
2022/10/02 01:06:28;;;;;;;0.57;0.57;;;20.90;64.80;;;;;;4940782;29;20464;-69
2022/10/02 01:08:57;;;;;;;0.67;0.67;;;20.90;64.90;;;;;;4938302;29;20430;-69
2022/10/02 01:11:26;;;;;;;1.00;1.00;;;20.90;64.70;;;;;;4951806;29;20471;-69
2022/10/02 01:13:54;;;;;;;0.83;0.83;;;20.90;64.60;;;;;;4938182;29;20471;-69
2022/10/02 01:16:22;;;;;;;0.83;0.83;;;20.90;64.90;;;;;;4939453;29;20429;-69
2022/10/02 01:18:50;;;;;;;1.03;0.93;;;20.90;64.70;;;;;;4938202;29;20483;-72
2022/10/02 01:21:24;;;;;;;0.70;0.70;;;20.90;64.80;;;;;;4938570;29;20439;-69
2022/10/02 01:24:02;;;;;;;1.00;1.00;;;20.90;64.70;;;;;;4943478;29;20934;-69
2022/10/02 01:26:32;;;;;;;0.90;0.90;;;20.90;64.80;;;;;;4956525;28;20431;-69
2022/10/02 01:29:01;;;;;;;0.60;0.60;;;20.90;64.60;;;;;;4956815;28;20482;-69
2022/10/02 01:31:29;;;;;;;0.80;0.80;;;20.90;64.70;;;;;;4957081;28;20468;-68
2022/10/02 01:33:58;;;;;;;0.80;0.80;;;20.90;64.60;;;;;;4956902;28;20495;-69
2022/10/02 01:36:27;;;;;;;0.67;0.67;;;20.90;64.50;;;;;;4956982;28;20437;-68
2022/10/02 01:38:56;;;;;;;0.80;0.80;;;20.90;64.50;;;;;;4956487;28;20444;-69
2022/10/02 01:41:25;;;;;;;0.70;0.70;;;20.90;64.50;;;;;;4956461;28;20439;-69
2022/10/02 01:43:58;;;;;;;0.60;0.60;;;20.90;64.50;;;;;;4956978;28;20451;-70
2022/10/02 01:46:35;;;;;;;0.90;0.90;;;20.90;64.50;;;;;;4939502;28;20444;-69
2022/10/02 01:49:21;;;;;;;0.70;0.70;;;20.90;64.50;;;;;;4956953;28;20436;-68
2022/10/02 01:52:04;;;;;;;1.43;1.33;;;20.90;64.50;;;;;;4957161;28;20472;-70
2022/10/02 01:54:48;;;;;;;0.90;0.90;;;20.90;64.50;;;;;;4956957;28;20464;-68
2022/10/02 01:57:26;;;;;;;0.67;0.67;;;20.90;64.50;;;;;;4956879;28;20445;-69
2022/10/02 02:00:07;;;;;;;0.57;0.57;;;20.90;64.50;;;;;;4957142;28;20912;-69
2022/10/02 02:02:51;;;;;;;0.73;0.70;;;20.90;64.50;;;;;;4957245;28;21122;-69
2022/10/02 02:05:29;;;;;;;0.90;0.90;;;20.90;64.50;;;;;;4953483;29;20469;-68
2022/10/02 02:08:08;;;;;;;0.67;0.67;;;20.90;64.50;;;;;;4943830;28;20461;-68
2022/10/02 02:10:48;;;;;;;0.63;0.63;;;20.90;64.50;;;;;;4948089;29;20473;-69
2022/10/02 02:13:23;;;;;;;0.60;0.60;;;20.90;64.50;;;;;;4955209;29;20453;-69
2022/10/02 02:15:58;;;;;;;0.50;0.50;;;20.90;64.50;;;;;;4956872;28;20459;-69
2022/10/02 02:18:31;;;;;;;0.73;0.73;;;20.90;64.40;;;;;;4956553;28;20480;-68
2022/10/02 02:21:04;;;;;;;0.70;0.70;;;20.90;64.40;;;;;;4937826;28;20815;-70
2022/10/02 02:23:36;;;;;;;0.70;0.70;;;20.90;64.50;;;;;;4935852;28;20468;-68
2022/10/02 02:26:11;;;;;;;0.70;0.70;;;20.90;64.50;;;;;;4937222;29;20433;-68
2022/10/02 02:28:43;;;;;;;0.70;0.70;;;20.90;64.40;;;;;;4937264;29;20430;-68
2022/10/02 02:31:18;;;;;;;0.80;0.80;;;20.90;64.40;;;;;;4936845;29;20814;-68
2022/10/02 02:33:51;;;;;;;0.70;0.70;;;20.90;64.40;;;;;;4937239;29;20449;-72
2022/10/02 02:36:22;;;;;;;0.80;0.80;;;20.90;64.40;;;;;;4937814;29;20436;-68
2022/10/02 02:38:54;;;;;;;0.70;0.70;;;20.90;64.40;;;;;;4939978;29;20797;-70
2022/10/02 02:41:27;;;;;;;0.80;0.80;;;20.90;64.40;;;;;;4946875;29;20467;-69
2022/10/02 02:44:01;;;;;;;0.60;0.60;;;20.90;64.50;;;;;;4956221;29;20429;-69
2022/10/02 02:47:02;;;;;;;0.67;0.67;;;20.90;64.40;;;;;;4956084;28;20881;-68
2022/10/02 02:49:27;;;;;;;0.80;0.80;;;20.90;64.40;;;;;;4955687;28;20457;-68
2022/10/02 02:51:59;;;;;;;0.70;0.70;;;20.90;64.50;;;;;;4950461;28;20477;-69
2022/10/02 02:54:34;;;;;;;0.70;0.70;;;20.90;64.40;;;;;;4955458;28;20471;-68
2022/10/02 02:57:05;;;;;;;0.77;0.77;;;20.90;64.40;;;;;;4953268;28;20432;-69
2022/10/02 02:59:35;;;;;;;0.50;0.50;;;20.90;64.40;;;;;;4936850;29;20429;-70
2022/10/02 03:02:05;;;;;;;0.70;0.70;;;20.90;64.40;;;;;;4955681;28;20421;-68
2022/10/02 03:04:33;;;;;;;0.63;0.63;;;20.90;64.40;;;;;;4955462;28;20525;-70
2022/10/02 03:07:04;;;;;;;0.83;0.83;;;20.90;64.40;;;;;;4952192;28;20526;-69
2022/10/02 03:09:33;;;;;;;0.60;0.60;;;20.90;64.40;;;;;;4955123;28;20934;-68
2022/10/02 03:12:14;;;;;;;0.83;0.83;;;20.90;64.40;;;;;;4946680;28;20474;-69
2022/10/02 03:15:02;;;;;;;0.70;0.70;;;20.90;64.50;;;;;;4936515;29;20438;-69
2022/10/02 03:17:42;;;;;;;0.60;0.60;;;20.90;64.40;;;;;;4951246;29;20455;-69
2022/10/02 03:20:17;;;;;;;0.70;0.70;;;20.90;64.50;;;;;;4942618;28;20487;-69
2022/10/02 03:22:55;;;;;;;0.80;0.80;;;20.90;64.40;;;;;;4951569;29;20447;-68
2022/10/02 03:25:30;;;;;;;0.70;0.70;;;20.90;64.40;;;;;;4954678;28;20433;-70
2022/10/02 03:28:07;;;;;;;0.60;0.60;;;20.90;64.40;;;;;;4955584;28;20747;-68
2022/10/02 03:30:36;;;;;;;0.97;0.97;;;20.80;64.40;;;;;;4955330;28;20773;-69
2022/10/02 03:33:07;;;;;;;0.70;0.70;;;20.90;64.30;;;;;;4951909;28;20454;-70
2022/10/02 03:35:35;;;;;;;1.10;0.70;;;20.90;64.30;;;;;;4936063;29;20433;-69
2022/10/02 03:38:05;;;;;;;0.60;0.60;;;20.90;64.30;;;;;;4954679;29;20445;-72
2022/10/02 03:40:33;;;;;;;0.60;0.60;;;20.90;64.30;;;;;;4954479;28;20436;-68
2022/10/02 03:43:02;;;;;;;0.50;0.50;;;20.90;64.30;;;;;;4954771;28;20450;-69
2022/10/02 03:45:30;;;;;;;0.70;0.70;;;20.90;64.30;;;;;;4955046;28;20432;-70
2022/10/02 03:48:20;;;;;;;0.80;0.80;;;20.90;64.30;;;;;;4955157;28;20781;-68
2022/10/02 03:50:49;;;;;;;0.70;0.70;;;20.90;64.30;;;;;;4955025;28;20426;-68
2022/10/02 03:53:19;;;;;;;0.63;0.63;;;20.90;64.30;;;;;;4954828;28;20789;-68
2022/10/02 03:55:52;;;;;;;0.70;0.70;;;20.90;64.30;;;;;;4954691;28;20769;-68
2022/10/02 03:58:21;;;;;;;0.80;0.80;;;20.90;64.30;;;;;;4955141;29;20782;-70
2022/10/02 04:00:55;;;;;;;0.80;0.80;;;20.90;64.30;;;;;;4954629;28;20439;-69
2022/10/02 04:03:28;;;;;;;0.53;0.53;;;20.90;64.30;;;;;;4954750;28;20484;-69
2022/10/02 04:06:00;;;;;;;0.67;0.67;;;20.90;64.30;;;;;;4952996;28;20465;-68
2022/10/02 04:08:32;;;;;;;0.77;0.77;;;20.90;64.30;;;;;;4945705;29;20639;-68
2022/10/02 04:11:08;;;;;;;0.50;0.50;;;20.90;64.30;;;;;;4953783;29;20911;-70
2022/10/02 04:13:39;;;;;;;0.60;0.60;;;20.90;64.30;;;;;;4954166;28;20419;-68
2022/10/02 04:16:15;;;;;;;0.50;0.50;;;20.90;64.30;;;;;;4954666;28;20434;-68
2022/10/02 04:18:51;;;;;;;0.60;0.60;;;20.90;64.30;;;;;;4954508;28;21197;-69
2022/10/02 04:21:33;;;;;;;0.70;0.70;;;20.90;64.30;;;;;;4951892;29;20452;-68
2022/10/02 04:24:12;;;;;;;0.50;0.50;;;20.90;64.30;;;;;;4953963;28;20441;-68
2022/10/02 04:26:47;;;;;;;0.80;0.80;;;20.90;64.30;;;;;;4954308;28;20467;-70
2022/10/02 04:29:22;;;;;;;0.60;0.60;;;20.90;64.30;;;;;;4954001;28;20776;-69
2022/10/02 04:31:53;;;;;;;0.83;0.83;;;20.90;64.40;;;;;;4954267;28;20807;-68
2022/10/02 04:34:23;;;;;;;0.70;0.70;;;20.90;64.40;;;;;;4954246;28;20446;-68
2022/10/02 04:37:07;;;;;;;0.53;0.53;;;20.90;64.40;;;;;;4952553;29;20466;-69
2022/10/02 04:40:07;;;;;;;0.60;0.60;;;20.80;64.30;;;;;;4950731;28;20436;-69
2022/10/02 04:42:55;;;;;;;0.70;0.70;;;20.80;64.30;;;;;;4939279;29;20503;-68
2022/10/02 04:45:47;;;;;;;0.70;0.70;;;20.90;64.40;;;;;;4953880;28;20789;-72
2022/10/02 04:48:55;;;;;;;0.70;0.70;;;20.80;64.40;;;;;;4954197;28;20439;-68
2022/10/02 04:51:44;;;;;;;0.90;0.90;;;20.80;64.30;;;;;;4954055;28;20436;-69
2022/10/02 04:54:36;;;;;;;0.60;0.60;;;20.80;64.30;;;;;;4953973;29;20447;-68
2022/10/02 04:57:23;;;;;;;0.43;0.43;;;20.80;64.30;;;;;;4954048;28;20446;-68
2022/10/02 05:00:09;;;;;;;0.57;0.50;;;20.80;64.30;;;;;;4954201;28;20429;-70
2022/10/02 05:03:00;;;;;;;0.70;0.70;;;20.90;64.30;;;;;;4949309;29;20472;-68
2022/10/02 05:05:44;;;;;;;0.67;0.67;;;20.80;64.30;;;;;;4934617;29;20779;-68
2022/10/02 05:08:41;;;;;;;0.80;0.80;;;20.90;64.30;;;;;;4934232;29;20429;-68
2022/10/02 05:11:27;;;;;;;0.63;0.63;;;20.90;64.40;;;;;;4930940;29;20469;-68
2022/10/02 05:14:24;;;;;;;0.63;0.60;;;20.80;64.30;;;;;;4933238;29;20446;-70
2022/10/02 05:17:04;;;;;;;1.03;0.73;;;20.80;64.30;;;;;;4934590;29;20435;-69
2022/10/02 05:19:56;;;;;;;0.83;0.83;;;20.80;64.40;;;;;;4945063;28;20469;-68
2022/10/02 05:22:55;;;;;;;0.40;0.40;;;20.90;64.40;;;;;;4934600;29;20453;-69
2022/10/02 05:25:53;;;;;;;0.50;0.50;;;20.80;64.40;;;;;;4947177;29;20824;-69
2022/10/02 05:28:45;;;;;;;0.40;0.40;;;20.80;64.30;;;;;;4947521;28;20460;-69
2022/10/02 05:31:25;;;;;;;0.60;0.60;;;20.80;64.30;;;;;;4934732;29;20915;-69
2022/10/02 05:34:11;;;;;;;0.70;0.70;;;20.80;64.40;;;;;;4952135;29;20471;-69
2022/10/02 05:37:06;;;;;;;0.50;0.50;;;20.80;64.30;;;;;;4953496;28;20434;-69
2022/10/02 05:39:40;;;;;;;0.53;0.53;;;20.90;64.30;;;;;;4953724;28;20437;-69
2022/10/02 05:42:20;;;;;;;0.70;0.70;;;20.80;64.30;;;;;;4953648;28;20476;-68
2022/10/02 05:44:52;;;;;;;0.60;0.60;;;20.90;64.20;;;;;;4957108;28;20432;-68
2022/10/02 05:47:28;;;;;;;0.50;0.50;;;20.90;64.20;;;;;;4957392;28;20447;-69
2022/10/02 05:49:59;;;;;;;0.50;0.50;;;20.90;64.20;;;;;;4956931;28;20451;-68
2022/10/02 05:52:35;;;;;;;0.70;0.70;;;20.90;64.20;;;;;;4956940;28;20472;-69
2022/10/02 05:55:14;;;;;;;0.50;0.40;;;20.80;64.20;;;;;;4955935;28;20442;-69
2022/10/02 05:57:52;;;;;;;0.53;0.53;;;20.80;64.20;;;;;;4956572;28;20427;-68
2022/10/02 06:00:28;;;;;;;0.60;0.60;;;20.90;64.20;;;;;;4956980;28;20449;-68
2022/10/02 06:03:08;;;;;;;0.60;0.60;;;20.90;64.20;;;;;;4952294;28;20977;-70
2022/10/02 06:05:45;;;;;;;0.60;0.60;;;20.90;64.20;;;;;;4956853;28;20435;-69
2022/10/02 06:08:16;;;;;;;0.50;0.50;;;20.90;64.10;;;;;;4948111;28;20473;-68
2022/10/02 06:10:48;;;;;;;0.50;0.50;;;20.90;64.10;;;;;;4956669;28;20528;-68
2022/10/02 06:13:24;;;;;;;0.73;0.73;;;20.90;64.10;;;;;;4946555;28;20473;-68
2022/10/02 06:16:02;;;;;;;0.50;0.50;;;20.90;64.10;;;;;;4938340;29;20940;-69
2022/10/02 06:18:33;;;;;;;0.67;0.40;;;20.90;64.10;;;;;;4956905;28;20500;-68
2022/10/02 06:21:06;;;;;;;0.50;0.50;;;20.90;64.10;;;;;;4939009;28;20465;-68
2022/10/02 06:23:38;;;;;;;0.80;0.80;;;20.90;64.10;;;;;;4936915;29;20426;-68
2022/10/02 06:26:12;;;;;;;0.50;0.50;;;20.90;64.10;;;;;;4952991;29;20457;-68
2022/10/02 06:28:46;;;;;;;0.70;0.70;;;20.90;64.10;;;;;;4956112;28;20427;-69
2022/10/02 06:31:20;;;;;;;0.63;0.63;;;20.90;64.10;;;;;;4952683;28;20484;-68
2022/10/02 06:33:51;;;;;;;0.67;0.67;;;20.90;64.10;;;;;;4955593;28;20477;-68
2022/10/02 06:36:32;;;;;;;0.67;0.67;;;20.90;64.00;;;;;;4949936;28;20448;-69
2022/10/02 06:39:14;;;;;;;0.60;0.60;;;20.90;64.00;;;;;;4950813;28;20976;-68
2022/10/02 06:41:50;;;;;;;0.60;0.60;;;20.90;64.00;;;;;;4947246;28;20452;-69
2022/10/02 06:44:26;;;;;;;0.80;0.80;;;20.90;64.00;;;;;;4947321;28;20449;-68
2022/10/02 06:47:08;;;;;;;0.60;0.60;;;20.90;64.00;;;;;;4955506;28;20445;-68
2022/10/02 06:49:46;;;;;;;0.50;0.50;;;20.90;64.00;;;;;;4954476;29;20450;-68
2022/10/02 06:52:29;;;;;;;0.60;0.60;;;20.90;64.00;;;;;;4955340;28;20457;-69
2022/10/02 06:55:34;;;;;;;1.03;0.53;;;20.90;64.00;;;;;;4946452;29;20450;-68
2022/10/02 06:58:20;;;;;;;0.50;0.50;;;20.90;63.90;;;;;;4954761;28;20471;-71
2022/10/02 07:00:55;;;;;;;0.80;0.80;;;20.90;63.90;;;;;;4948365;28;20957;-68
2022/10/02 07:03:41;;;;;;;0.63;0.50;;;20.90;63.90;;;;;;4947130;29;20980;-70
2022/10/02 07:06:35;;;;;;;0.73;0.60;;;20.90;63.90;;;;;;4953365;29;20903;-69
2022/10/02 07:09:24;;;;;;;0.57;0.57;;;21.00;63.80;;;;;;4950321;29;20517;-69
2022/10/02 07:12:03;;;;;;;0.50;0.47;;;21.00;63.80;;;;;;4953337;29;20454;-69
2022/10/02 07:14:51;;;;;;;0.67;0.67;;;21.00;63.80;;;;;;4950530;28;20473;-69
2022/10/02 07:17:36;;;;;;;0.60;0.60;;;21.00;63.70;;;;;;4951065;29;20933;-69
2022/10/02 07:20:25;;;;;;;0.70;0.70;;;21.00;63.70;;;;;;4953269;28;20472;-70
2022/10/02 07:23:17;;;;;;;0.60;0.60;;;21.00;63.70;;;;;;4954285;28;20801;-68
2022/10/02 07:25:59;;;;;;;0.50;0.50;;;21.00;63.70;;;;;;4950965;29;20967;-69
2022/10/02 07:28:38;;;;;;;0.63;0.63;;;21.00;63.70;;;;;;4950608;29;20444;-71
2022/10/02 07:31:17;;;;;;;0.67;0.67;;;21.00;63.70;;;;;;4954097;28;20525;-70
2022/10/02 07:34:00;;;;;;;0.57;0.57;;;21.00;63.70;;;;;;4947542;28;20476;-69
2022/10/02 07:36:38;;;;;;;0.50;0.50;;;21.00;63.60;;;;;;4935769;29;20425;-69
2022/10/02 07:39:17;;;;;;;0.80;0.80;;;21.00;63.60;;;;;;4936006;29;20921;-68
2022/10/02 07:41:58;;;;;;;0.50;0.50;;;21.00;63.90;;;;;;4935930;29;20541;-68
2022/10/02 07:44:50;;;;;;;0.73;0.60;;;21.10;63.60;;;;;;4935587;29;20452;-69
2022/10/02 07:47:33;;;;;;;0.63;0.63;;;21.10;63.90;;;;;;4935796;29;20444;-69
2022/10/02 07:50:12;;;;;;;0.50;0.50;;;21.10;64.00;;;;;;4936121;29;20462;-68
2022/10/02 07:52:49;;;;;;;0.83;0.53;;;21.10;63.60;;;;;;4935900;29;21214;-69
2022/10/02 07:55:19;;;;;;;0.60;0.60;;;21.10;63.50;;;;;;4934891;29;20442;-68
2022/10/02 07:57:56;;;;;;;0.60;0.60;;;21.10;63.40;;;;;;4935370;29;20795;-69
2022/10/02 08:00:26;;;;;;;0.57;0.57;;;21.20;63.50;;;;;;4947835;29;20452;-68
2022/10/02 08:02:59;;;;;;;0.60;0.60;;;21.20;63.40;;;;;;4954590;28;20477;-69
2022/10/02 08:05:33;;;;;;;1.30;0.87;;;21.20;63.60;;;;;;4947511;28;20453;-71
2022/10/02 08:08:09;;;;;;;0.77;0.50;;;21.20;63.70;;;;;;4940027;29;20463;-70
2022/10/02 08:10:41;;;;;;;0.70;0.70;;;21.20;63.40;;;;;;4935080;29;20425;-69
2022/10/02 08:13:19;;;;;;;0.90;0.90;;;21.20;63.80;;;;;;4935846;29;20453;-69
2022/10/02 08:15:50;;;;;;;0.90;0.90;;;21.20;64.10;;;;;;4947792;29;20973;-69
2022/10/02 08:18:27;;;;;;;0.60;0.60;;;21.20;63.70;;;;;;4954349;28;20472;-69
2022/10/02 08:21:11;;;;;;;0.50;0.50;;;21.20;63.70;;;;;;4937684;28;20802;-70
2022/10/02 08:23:46;;;;;;;0.50;0.50;;;21.30;63.50;;;;;;4943255;29;20456;-69
2022/10/02 08:26:19;;;;;;;0.77;0.77;;;21.30;63.70;;;;;;4953611;28;20430;-70
2022/10/02 08:28:55;;;;;;;0.60;0.60;;;21.30;63.50;;;;;;4954421;28;20430;-68
2022/10/02 08:31:25;;;;;;;1.07;0.70;;;21.30;63.70;;;;;;4951707;28;20949;-69
2022/10/02 08:33:54;;;;;;;0.50;0.50;;;21.30;63.70;;;;;;4954097;28;20898;-71
2022/10/02 08:36:57;;;;;;;0.60;0.60;;;21.30;63.50;;;;;;4954507;28;20434;-69
2022/10/02 08:40:07;;;;;;;1.00;1.00;;;21.30;63.70;;;;;;4954083;28;20444;-68
2022/10/02 08:43:10;;;;;;;0.73;0.73;;;21.40;63.80;;;;;;4930376;29;20469;-68
2022/10/02 08:46:18;;;;;;;0.70;0.70;;;21.40;63.40;;;;;;4929235;29;20457;-70
2022/10/02 08:49:34;;;;;;;0.53;0.53;;;21.40;63.30;;;;;;4935022;29;20439;-69
2022/10/02 08:52:37;;;;;;;0.90;0.90;;;21.40;63.60;;;;;;4917633;29;20460;-68
2022/10/02 08:55:31;;;;;;;0.80;0.80;;;21.40;63.50;;;;;;4916414;29;20474;-69
2022/10/02 08:58:29;;;;;;;0.80;0.80;;;21.40;63.50;;;;;;4942992;28;20469;-69
2022/10/02 09:01:06;;;;;;;0.70;0.70;;;21.40;63.30;;;;;;4950809;28;20814;-68
2022/10/02 09:04:03;;;;;;;0.50;0.50;;;21.40;63.40;;;;;;4954106;28;20497;-68
2022/10/02 09:07:07;;;;;;;0.90;0.80;;;21.50;63.70;;;;;;4952385;28;20444;-69
2022/10/02 09:10:09;;;;;;;0.40;0.40;;;21.50;63.90;;;;;;4953999;28;20439;-69
2022/10/02 09:13:02;;;;;;;0.70;0.70;;;21.50;63.90;;;;;;4953505;28;20447;-69
2022/10/02 09:15:43;;;;;;;0.67;0.67;;;21.60;63.10;;;;;;4953741;28;20473;-69
2022/10/02 09:18:30;;;;;;;0.60;0.60;;;21.60;63.10;;;;;;4956125;28;20480;-68
2022/10/02 09:21:18;;;;;;;0.80;0.80;;;21.60;62.80;;;;;;4958111;28;20943;-68
2022/10/02 09:24:29;;;;;;;0.50;0.40;;;21.60;62.80;;;;;;4957136;28;20422;-68
2022/10/02 09:27:40;;;;;;;0.60;0.60;;;21.60;62.70;;;;;;4952854;28;20451;-71
2022/10/02 09:30:46;;;;;;;0.50;0.50;;;21.70;62.90;;;;;;4910011;29;20869;-69
2022/10/02 09:33:47;;;;;;;0.60;0.60;;;21.70;63.00;;;;;;4931577;29;20472;-69
2022/10/02 09:36:56;;;;;;;0.50;0.50;;;21.70;62.70;;;;;;4952289;28;20458;-68
2022/10/02 09:39:52;;;;;;;0.63;0.63;;;21.70;62.60;;;;;;4935959;29;20810;-69
2022/10/02 09:42:50;;;;;;;0.70;0.60;;;21.70;62.70;;;;;;4957466;28;20453;-69
2022/10/02 09:45:42;;;;;;;0.70;0.70;;;21.70;63.00;;;;;;4949272;28;20463;-68
2022/10/02 09:48:49;;;;;;;0.50;0.50;;;21.70;62.90;;;;;;4957143;28;20454;-69
2022/10/02 09:51:47;;;;;;;0.70;0.67;;;21.80;62.60;;;;;;4957212;28;20437;-69
2022/10/02 09:54:53;;;;;;;0.50;0.50;;;21.80;63.10;;;;;;4955307;29;20484;-69
2022/10/02 09:57:53;;;;;;;0.40;0.40;;;21.80;62.90;;;;;;4953805;28;20466;-69
2022/10/02 10:00:33;;;;;;;0.63;0.63;;;21.80;63.10;;;;;;4956824;28;20441;-69
2022/10/02 10:03:42;;;;;;;0.60;0.60;;;21.80;63.00;;;;;;4956452;28;20495;-70
2022/10/02 10:06:41;;;;;;;0.80;0.80;;;21.90;62.80;;;;;;4897138;29;20467;-69
2022/10/02 10:09:33;;;;;;;0.80;0.80;;;21.90;62.90;;;;;;4953986;28;20783;-69
2022/10/02 10:12:41;;;;;;;0.50;0.50;;;21.90;62.70;;;;;;4956464;28;20427;-69
2022/10/02 10:16:00;;;;;;;0.67;0.67;;;21.90;62.50;;;;;;4956812;28;20979;-68
2022/10/02 10:18:55;;;;;;;0.50;0.50;;;21.90;62.80;;;;;;4915635;29;20479;-68
2022/10/02 10:22:05;;;;;;;0.50;0.50;;;21.90;62.30;;;;;;4942305;28;20476;-71
2022/10/02 10:25:12;;;;;;;0.70;0.70;;;21.90;62.40;;;;;;4936738;29;20446;-69
2022/10/02 10:28:25;;;;;;;0.50;0.50;;;21.90;62.80;;;;;;4940716;28;20446;-72
2022/10/02 10:31:33;;;;;;;0.47;0.47;;;22.00;62.90;;;;;;4925119;29;20951;-69
2022/10/02 10:34:35;;;;;;;0.53;0.53;;;21.90;62.60;;;;;;4919948;29;20472;-69
2022/10/02 10:40:19;;;;;;;0.60;0.60;;;21.90;63.00;;;;;;4950778;29;20476;-69
2022/10/02 10:43:40;;;;;;;0.47;0.47;;;21.80;63.30;;;;;;4937464;29;20450;-69
2022/10/02 10:46:37;;;;;;;0.80;0.80;;;21.80;63.00;;;;;;4951690;29;20458;-68
2022/10/02 10:49:42;;;;;;;0.40;0.40;;;21.90;63.30;;;;;;4955549;28;20443;-69
2022/10/02 10:52:28;;;;;;;0.57;0.50;;;21.90;63.00;;;;;;4955786;28;20439;-69
2022/10/02 10:55:14;;;;;;;1.03;1.03;;;21.90;62.60;;;;;;4954881;28;20478;-69
2022/10/02 10:58:02;;;;;;;0.97;0.97;;;21.90;63.30;;;;;;4956208;29;20453;-69
2022/10/02 11:00:40;;;;;;;0.60;0.50;;;21.90;62.90;;;;;;4955279;28;20437;-68
2022/10/02 11:03:33;;;;;;;0.50;0.50;;;21.90;62.70;;;;;;4937846;29;20501;-69
2022/10/02 11:06:35;;;;;;;0.60;0.60;;;21.90;62.50;;;;;;4947375;29;20449;-68
2022/10/02 11:09:41;;;;;;;0.70;0.70;;;21.80;62.80;;;;;;4955250;28;20438;-69
2022/10/02 11:12:27;;;;;;;0.60;0.60;;;21.90;62.80;;;;;;4940397;29;20445;-69
2022/10/02 11:15:11;;;;;;;0.40;0.40;;;21.90;63.20;;;;;;4951270;28;20835;-69
2022/10/02 11:18:15;;;;;;;0.40;0.40;;;21.90;62.90;;;;;;4936458;29;20444;-69
2022/10/02 11:21:15;;;;;;;0.60;0.60;;;22.00;62.60;;;;;;4936177;29;20473;-72
2022/10/02 11:24:21;;;;;;;0.60;0.60;;;22.00;62.80;;;;;;4952595;29;20482;-69
2022/10/02 11:27:11;;;;;;;0.50;0.50;;;22.00;62.50;;;;;;4953837;28;20470;-69
2022/10/02 11:30:09;;;;;;;0.50;0.50;;;22.00;62.50;;;;;;4952655;28;20466;-69
2022/10/02 11:33:13;;;;;;;0.60;0.60;;;22.00;62.30;;;;;;4936278;29;20485;-70
2022/10/02 11:35:55;;;;;;;0.50;0.50;;;22.00;62.50;;;;;;4940595;28;20807;-69
2022/10/02 11:38:53;;;;;;;0.60;0.60;;;22.00;62.60;;;;;;4935957;29;20503;-68
2022/10/02 11:41:45;;;;;;;0.70;0.70;;;22.00;62.40;;;;;;4941222;29;20555;-69
2022/10/02 11:44:27;;;;;;;0.50;0.50;;;22.10;62.40;;;;;;4940757;28;20793;-68
2022/10/02 11:47:31;;;;;;;0.70;0.70;;;22.10;62.50;;;;;;4936169;29;20435;-68
2022/10/02 11:50:30;;;;;;;0.40;0.40;;;22.10;62.60;;;;;;4941714;29;20928;-68
2022/10/02 11:53:34;;;;;;;0.70;0.70;;;22.10;62.30;;;;;;4955019;28;20446;-68
2022/10/02 11:56:34;;;;;;;0.40;0.40;;;22.10;62.30;;;;;;4954405;29;20492;-69
2022/10/02 11:59:28;;;;;;;0.50;0.50;;;22.10;62.60;;;;;;4954974;28;20449;-68
2022/10/02 12:02:04;;;;;;;0.50;0.50;;;22.10;62.90;;;;;;4955007;28;20776;-70
2022/10/02 12:04:46;;;;;;;0.57;0.57;;;22.10;62.70;;;;;;4954898;28;20475;-68
2022/10/02 12:07:28;;;;;;;0.60;0.60;;;22.10;62.30;;;;;;4954647;28;21149;-68
2022/10/02 12:10:13;;;;;;;0.50;0.50;;;22.10;62.40;;;;;;4946559;28;20442;-69
2022/10/02 12:12:53;;;;;;;0.40;0.40;;;22.20;62.30;;;;;;4954429;28;20450;-68
2022/10/02 12:15:33;;;;;;;0.67;0.67;;;22.20;62.60;;;;;;4954594;28;20818;-69
2022/10/02 12:18:19;;;;;;;0.50;0.50;;;22.20;62.60;;;;;;4955013;28;20474;-68
2022/10/02 12:27:02;;;;;;;0.50;0.50;;;22.10;62.80;;;;;;4954055;29;20436;-69
2022/10/02 12:29:59;;;;;;;0.50;0.50;;;22.10;62.70;;;;;;4954133;28;20793;-68
2022/10/02 12:32:43;;;;;;;0.50;0.50;;;22.10;62.70;;;;;;4954483;28;20438;-69
2022/10/02 12:35:26;;;;;;;0.50;0.50;;;22.00;62.70;;;;;;4941627;28;20465;-68
2022/10/02 12:38:04;;;;;;;0.50;0.50;;;22.00;62.60;;;;;;4935350;29;20435;-68
2022/10/02 12:40:43;;;;;;;0.50;0.50;;;22.00;62.70;;;;;;4934145;29;20455;-69
2022/10/02 12:43:56;;;;;;;0.50;0.50;;;22.00;62.30;;;;;;4952011;29;20938;-68
2022/10/02 12:46:38;;;;;;;0.60;0.60;;;22.00;62.20;;;;;;4919954;29;20458;-68
2022/10/02 12:49:34;;;;;;;0.50;0.50;;;22.00;62.20;;;;;;4954118;29;20443;-69
2022/10/02 12:52:31;;;;;;;0.40;0.40;;;22.00;62.00;;;;;;4955880;28;20447;-68
2022/10/02 12:55:32;;;;;;;0.40;0.40;;;22.00;62.10;;;;;;4957497;28;20442;-68
2022/10/02 12:58:13;;;;;;;0.60;0.60;;;22.00;62.30;;;;;;4954113;28;20454;-68
2022/10/02 13:01:00;;;;;;;0.50;0.43;;;22.00;62.50;;;;;;4953060;29;20492;-68
2022/10/02 13:04:03;;;;;;;0.53;0.53;;;22.00;62.70;;;;;;4946982;28;20502;-68
2022/10/02 13:07:16;;;;;;;0.50;0.50;;;22.00;62.30;;;;;;4951233;29;20468;-68
2022/10/02 13:09:51;;;;;;;0.50;0.50;;;22.00;62.00;;;;;;4936328;29;20471;-68
2022/10/02 13:12:40;;;;;;;0.60;0.60;;;22.00;61.90;;;;;;4957321;28;20461;-70
2022/10/02 13:15:32;;;;;;;0.43;0.43;;;22.00;61.90;;;;;;4945574;29;20481;-68
2022/10/02 13:18:14;;;;;;;0.50;0.50;;;22.00;61.80;;;;;;4940806;28;20467;-68
2022/10/02 13:20:51;;;;;;;0.60;0.60;;;22.00;61.90;;;;;;4956676;29;20460;-68
2022/10/02 13:23:30;;;;;;;0.60;0.50;;;22.00;61.90;;;;;;4956472;28;20454;-68
2022/10/02 13:26:11;;;;;;;0.50;0.50;;;22.00;61.90;;;;;;4950229;28;20438;-68
2022/10/02 13:29:09;;;;;;;0.50;0.50;;;21.90;61.90;;;;;;4944288;29;20462;-69
2022/10/02 13:31:49;;;;;;;0.50;0.50;;;21.90;61.90;;;;;;4950761;29;20832;-70
2022/10/02 13:34:32;;;;;;;0.50;0.50;;;21.90;61.90;;;;;;4941136;29;20466;-70
2022/10/02 13:37:15;;;;;;;0.60;0.60;;;21.90;61.90;;;;;;4954023;29;20568;-69
2022/10/02 13:40:12;;;;;;;0.50;0.50;;;21.90;61.90;;;;;;4944642;29;20459;-68
2022/10/02 13:43:03;;;;;;;0.50;0.50;;;21.90;61.90;;;;;;4944679;29;20450;-68
2022/10/02 13:45:38;;;;;;;0.50;0.50;;;21.90;61.90;;;;;;4949985;28;20447;-69
2022/10/02 13:48:17;;;;;;;0.50;0.50;;;21.90;61.90;;;;;;4950535;29;20450;-69
2022/10/02 13:50:52;;;;;;;0.43;0.43;;;21.90;62.00;;;;;;4956112;28;20452;-70
2022/10/02 13:53:50;;;;;;;0.60;0.60;;;21.90;62.00;;;;;;4956227;28;20470;-69
2022/10/02 13:56:33;;;;;;;0.60;0.60;;;21.80;62.00;;;;;;4957857;28;20480;-69
2022/10/02 13:59:21;;;;;;;0.63;0.50;;;21.80;62.00;;;;;;4953642;29;20456;-68
2022/10/02 14:02:19;;;;;;;0.57;0.50;;;21.80;62.00;;;;;;4952773;29;20453;-68
2022/10/02 14:04:56;;;;;;;0.50;0.50;;;21.90;62.00;;;;;;4956061;28;20482;-69
2022/10/02 14:07:44;;;;;;;0.47;0.47;;;21.90;62.00;;;;;;4957589;29;20457;-68
2022/10/02 14:10:27;;;;;;;0.40;0.40;;;21.80;62.00;;;;;;4948770;28;20443;-68
2022/10/02 14:13:15;;;;;;;0.40;0.40;;;21.80;62.00;;;;;;4943027;29;20450;-69
2022/10/02 14:15:59;;;;;;;0.43;0.43;;;21.80;62.00;;;;;;4937385;29;20442;-68
2022/10/02 14:19:07;;;;;;;0.50;0.40;;;21.80;62.00;;;;;;4937464;29;20479;-68
2022/10/02 14:21:40;;;;;;;0.50;0.50;;;21.80;62.00;;;;;;4927783;29;20465;-68